Sultan Atasoy — TCYG9 — position and weather

sailwx.info

Track history (hours):
 
Tides and Currents Weather Stations Pressure Air Temp Water Temp Dewpoint Dewpoint Depression Visibility Wind Speed Wind Dir Waves Ship Positions

Sultan Atasoy

Last reported at 2017-Mar-24 11:28 UTC. Time now 2017-Mar-25 11:48 UTC.
Position N 38°32' E 003°13'.

Length 109 m; draft 5.9 m.

Type: Ship. MMSI: 271040963.

Date/timePositionNaut miles runAvg speedWind from/ knotsBaromVisibWave heightAir tempDewpointWater temp
2017-Mar-24 11:28N 38°32' E 003°13'1011.1
2017-Mar-24 10:33N 38°36' E 003°01'1111.2
2017-Mar-24 09:33N 38°41' E 002°48'1110.8
2017-Mar-24 08:33N 38°46' E 002°36'1010.4
2017-Mar-24 07:33N 38°50' E 002°24'1110.8
2017-Mar-24 06:33N 38°55' E 002°11'1110.9
2017-Mar-24 05:33N 39°01' E 001°60'1211.7
2017-Mar-24 04:33N 39°08' E 001°47'1312.5
2017-Mar-24 03:32N 39°15' E 001°33'1211.9
2017-Mar-24 02:33N 39°21' E 001°21'  
2017-Mar-20 23:19N 39°58' E 000°01'0 0.0
2017-Mar-20 22:28N 39°58' E 000°01'0 0.0
2017-Mar-19 16:25N 39°58' E 000°01'0 0.0
2017-Mar-19 15:19N 39°58' E 000°01'0 0.0
2017-Mar-19 11:25N 39°58' E 000°01'0 0.0
2017-Mar-19 10:25N 39°58' E 000°01'0 0.0
2017-Mar-19 09:33N 39°58' E 000°01'3 2.7
2017-Mar-19 08:33N 39°57' E 000°05'1 1.2
2017-Mar-19 07:33N 39°58' E 000°06'5 5.4
2017-Mar-19 06:33N 39°59' E 000°13'1411.3
2017-Mar-19 05:18N 40°07' E 000°28'811.0
2017-Mar-19 04:33N 40°11' E 000°38'1111.1
2017-Mar-19 03:33N 40°17' E 000°50'1111.1
2017-Mar-19 02:33N 40°24' E 001°02'1111.2
2017-Mar-19 01:33N 40°30' E 001°14'1111.0
2017-Mar-19 00:33N 40°36' E 001°26'1111.0
2017-Mar-18 23:33N 40°41' E 001°39'1111.0
2017-Mar-18 22:33N 40°47' E 001°51'1111.4
2017-Mar-18 21:33N 40°53' E 002°04'1111.2
2017-Mar-18 20:33N 40°60' E 002°16'1111.0
2017-Mar-18 19:33N 41°05' E 002°29'1111.2
2017-Mar-18 18:33N 41°11' E 002°42'1211.7
2017-Mar-18 17:32N 41°16' E 002°56'1111.3
2017-Mar-18 16:33N 41°21' E 003°09'1511.3
2017-Mar-18 15:15N 41°29' E 003°26'189 9.9
2017-Mar-17 20:08N 43°13' E 006°60'610.4
2017-Mar-17 19:33N 43°16' E 007°07'1111.1
2017-Mar-17 18:33N 43°22' E 007°19'1111.1
2017-Mar-17 17:33N 43°28' E 007°32'1111.2
2017-Mar-17 16:33N 43°35' E 007°45'1212.0
2017-Mar-17 15:33N 43°41' E 007°59'2611.9
2017-Mar-17 13:22N 44°01' E 008°22'1011.7
2017-Mar-17 12:33N 44°09' E 008°29'9 9.5
2017-Mar-17 11:33N 44°19' E 008°30'0 0.2
2017-Mar-17 10:33N 44°19' E 008°30'0 0.0
2017-Mar-17 09:33N 44°19' E 008°30'0 0.0
2017-Mar-17 08:33N 44°19' E 008°30'0 0.0
2017-Mar-17 07:30N 44°19' E 008°30'0 0.0
2017-Mar-17 06:30N 44°19' E 008°30'0 0.0
2017-Mar-17 05:30N 44°19' E 008°30'0 0.0
2017-Mar-17 04:30N 44°19' E 008°30'0 0.0
2017-Mar-17 03:30N 44°19' E 008°30'0 0.0
2017-Mar-17 02:33N 44°19' E 008°30'0 0.0
2017-Mar-17 01:30N 44°19' E 008°30'0 0.0
2017-Mar-17 00:30N 44°19' E 008°30'0 0.0
2017-Mar-16 23:30N 44°19' E 008°30'0 0.0
2017-Mar-16 22:33N 44°19' E 008°30'0 0.0
2017-Mar-16 21:33N 44°19' E 008°30'0 0.0
2017-Mar-16 20:27N 44°19' E 008°30'0 0.0
2017-Mar-16 19:30N 44°19' E 008°30'0 0.0
2017-Mar-16 18:33N 44°19' E 008°30'0 0.0
2017-Mar-16 17:33N 44°19' E 008°30'0 0.0
2017-Mar-16 16:33N 44°19' E 008°30'0 0.0
2017-Mar-16 15:33N 44°19' E 008°30'0 0.0
2017-Mar-16 14:33N 44°19' E 008°30'0 0.0
2017-Mar-16 13:30N 44°19' E 008°30'0 0.0
2017-Mar-16 12:30N 44°19' E 008°30'0 0.0
2017-Mar-16 11:30N 44°19' E 008°30'0 0.0
2017-Mar-16 10:30N 44°19' E 008°30'0 0.0
2017-Mar-16 09:30N 44°19' E 008°30'0 0.0
2017-Mar-16 08:33N 44°19' E 008°30'0 0.0
2017-Mar-16 07:30N 44°19' E 008°30'0 0.0
2017-Mar-16 06:33N 44°19' E 008°30'0 0.0
2017-Mar-16 05:33N 44°19' E 008°30'0 0.0
2017-Mar-16 04:33N 44°19' E 008°30'3 3.0
2017-Mar-16 03:33N 44°17' E 008°33'3 3.0
2017-Mar-16 02:33N 44°15' E 008°36'0 0.4
2017-Mar-16 01:33N 44°15' E 008°36'0 0.2
2017-Mar-16 00:33N 44°15' E 008°36'0 0.4
2017-Mar-15 23:33N 44°15' E 008°35'2 1.8
2017-Mar-15 22:33N 44°13' E 008°36'10 9.6
2017-Mar-15 21:33N 44°05' E 008°43'9 9.3
2017-Mar-15 20:33N 43°57' E 008°50'9 9.2
2017-Mar-15 19:33N 43°50' E 008°57'10 9.6
2017-Mar-15 18:33N 43°42' E 009°05'1010.2
2017-Mar-15 17:33N 43°33' E 009°12'1010.0
2017-Mar-15 16:33N 43°25' E 009°20'9 9.4
2017-Mar-15 15:33N 43°17' E 009°27'9 9.0
2017-Mar-15 14:33N 43°09' E 009°33'9 9.4
2017-Mar-15 13:33N 43°01' E 009°39'9 9.5
2017-Mar-15 12:33N 42°52' E 009°43'10 9.6
2017-Mar-15 11:33N 42°43' E 009°47'9 9.2
2017-Mar-15 10:33N 42°34' E 009°52'9 9.3
2017-Mar-15 09:33N 42°25' E 009°56'9 9.3
2017-Mar-15 08:33N 42°17' E 010°01'9 9.3
2017-Mar-15 07:33N 42°10' E 010°10'34 9.9
2017-Mar-15 04:09N 41°47' E 010°43'  
Track history (hours):
 
Tides and Currents Weather Stations Pressure Air Temp Water Temp Dewpoint Dewpoint Depression Visibility Wind Speed Wind Dir Waves Ship Positions

Sultan Atasoy

Last reported at 2017-Mar-24 11:28 UTC. Time now 2017-Mar-25 11:48 UTC.
Position N 38°32' E 003°13'.

Length 109 m; draft 5.9 m.

Type: Ship. MMSI: 271040963.

Date/timePositionNaut miles runAvg speedWind from/ knotsBaromVisibWave heightAir tempDewpointWater temp
2017-Mar-24 11:28N 38°32' E 003°13'1011.1
2017-Mar-24 10:33N 38°36' E 003°01'1111.2
2017-Mar-24 09:33N 38°41' E 002°48'1110.8
2017-Mar-24 08:33N 38°46' E 002°36'1010.4
2017-Mar-24 07:33N 38°50' E 002°24'1110.8
2017-Mar-24 06:33N 38°55' E 002°11'1110.9
2017-Mar-24 05:33N 39°01' E 001°60'1211.7
2017-Mar-24 04:33N 39°08' E 001°47'1312.5
2017-Mar-24 03:32N 39°15' E 001°33'1211.9
2017-Mar-24 02:33N 39°21' E 001°21'  
2017-Mar-20 23:19N 39°58' E 000°01'0 0.0
2017-Mar-20 22:28N 39°58' E 000°01'0 0.0
2017-Mar-19 16:25N 39°58' E 000°01'0 0.0
2017-Mar-19 15:19N 39°58' E 000°01'0 0.0
2017-Mar-19 11:25N 39°58' E 000°01'0 0.0
2017-Mar-19 10:25N 39°58' E 000°01'0 0.0
2017-Mar-19 09:33N 39°58' E 000°01'3 2.7
2017-Mar-19 08:33N 39°57' E 000°05'1 1.2
2017-Mar-19 07:33N 39°58' E 000°06'5 5.4
2017-Mar-19 06:33N 39°59' E 000°13'1411.3
2017-Mar-19 05:18N 40°07' E 000°28'811.0
2017-Mar-19 04:33N 40°11' E 000°38'1111.1
2017-Mar-19 03:33N 40°17' E 000°50'1111.1
2017-Mar-19 02:33N 40°24' E 001°02'1111.2
2017-Mar-19 01:33N 40°30' E 001°14'1111.0
2017-Mar-19 00:33N 40°36' E 001°26'1111.0
2017-Mar-18 23:33N 40°41' E 001°39'1111.0
2017-Mar-18 22:33N 40°47' E 001°51'1111.4
2017-Mar-18 21:33N 40°53' E 002°04'1111.2
2017-Mar-18 20:33N 40°60' E 002°16'1111.0
2017-Mar-18 19:33N 41°05' E 002°29'1111.2
2017-Mar-18 18:33N 41°11' E 002°42'1211.7
2017-Mar-18 17:32N 41°16' E 002°56'1111.3
2017-Mar-18 16:33N 41°21' E 003°09'1511.3
2017-Mar-18 15:15N 41°29' E 003°26'189 9.9
2017-Mar-17 20:08N 43°13' E 006°60'610.4
2017-Mar-17 19:33N 43°16' E 007°07'1111.1
2017-Mar-17 18:33N 43°22' E 007°19'1111.1
2017-Mar-17 17:33N 43°28' E 007°32'1111.2
2017-Mar-17 16:33N 43°35' E 007°45'1212.0
2017-Mar-17 15:33N 43°41' E 007°59'2611.9
2017-Mar-17 13:22N 44°01' E 008°22'1011.7
2017-Mar-17 12:33N 44°09' E 008°29'9 9.5
2017-Mar-17 11:33N 44°19' E 008°30'0 0.2
2017-Mar-17 10:33N 44°19' E 008°30'0 0.0
2017-Mar-17 09:33N 44°19' E 008°30'0 0.0
2017-Mar-17 08:33N 44°19' E 008°30'0 0.0
2017-Mar-17 07:30N 44°19' E 008°30'0 0.0
2017-Mar-17 06:30N 44°19' E 008°30'0 0.0
2017-Mar-17 05:30N 44°19' E 008°30'0 0.0
2017-Mar-17 04:30N 44°19' E 008°30'0 0.0
2017-Mar-17 03:30N 44°19' E 008°30'0 0.0
2017-Mar-17 02:33N 44°19' E 008°30'0 0.0
2017-Mar-17 01:30N 44°19' E 008°30'0 0.0
2017-Mar-17 00:30N 44°19' E 008°30'0 0.0
2017-Mar-16 23:30N 44°19' E 008°30'0 0.0
2017-Mar-16 22:33N 44°19' E 008°30'0 0.0
2017-Mar-16 21:33N 44°19' E 008°30'0 0.0
2017-Mar-16 20:27N 44°19' E 008°30'0 0.0
2017-Mar-16 19:30N 44°19' E 008°30'0 0.0
2017-Mar-16 18:33N 44°19' E 008°30'0 0.0
2017-Mar-16 17:33N 44°19' E 008°30'0 0.0
2017-Mar-16 16:33N 44°19' E 008°30'0 0.0
2017-Mar-16 15:33N 44°19' E 008°30'0 0.0
2017-Mar-16 14:33N 44°19' E 008°30'0 0.0
2017-Mar-16 13:30N 44°19' E 008°30'0 0.0
2017-Mar-16 12:30N 44°19' E 008°30'0 0.0
2017-Mar-16 11:30N 44°19' E 008°30'0 0.0
2017-Mar-16 10:30N 44°19' E 008°30'0 0.0
2017-Mar-16 09:30N 44°19' E 008°30'0 0.0
2017-Mar-16 08:33N 44°19' E 008°30'0 0.0
2017-Mar-16 07:30N 44°19' E 008°30'0 0.0
2017-Mar-16 06:33N 44°19' E 008°30'0 0.0
2017-Mar-16 05:33N 44°19' E 008°30'0 0.0
2017-Mar-16 04:33N 44°19' E 008°30'3 3.0
2017-Mar-16 03:33N 44°17' E 008°33'3 3.0
2017-Mar-16 02:33N 44°15' E 008°36'0 0.4
2017-Mar-16 01:33N 44°15' E 008°36'0 0.2
2017-Mar-16 00:33N 44°15' E 008°36'0 0.4
2017-Mar-15 23:33N 44°15' E 008°35'2 1.8
2017-Mar-15 22:33N 44°13' E 008°36'10 9.6
2017-Mar-15 21:33N 44°05' E 008°43'9 9.3
2017-Mar-15 20:33N 43°57' E 008°50'9 9.2
2017-Mar-15 19:33N 43°50' E 008°57'10 9.6
2017-Mar-15 18:33N 43°42' E 009°05'1010.2
2017-Mar-15 17:33N 43°33' E 009°12'1010.0
2017-Mar-15 16:33N 43°25' E 009°20'9 9.4
2017-Mar-15 15:33N 43°17' E 009°27'9 9.0
2017-Mar-15 14:33N 43°09' E 009°33'9 9.4
2017-Mar-15 13:33N 43°01' E 009°39'9 9.5
2017-Mar-15 12:33N 42°52' E 009°43'10 9.6
2017-Mar-15 11:33N 42°43' E 009°47'9 9.2
2017-Mar-15 10:33N 42°34' E 009°52'9 9.3
2017-Mar-15 09:33N 42°25' E 009°56'9 9.3
2017-Mar-15 08:33N 42°17' E 010°01'9 9.3
2017-Mar-15 07:33N 42°10' E 010°10'34 9.9
2017-Mar-15 04:09N 41°47' E 010°43'  

Dump ship's entire track history